Grosse Ile, MI

11:41 AM EDT on September 25, 2017 (GMT -0400)
Grosse Ile Municipal

Weather History for KONZ - February, 2014

Change the Weather History Date:

Thursday, February 27, 2014

  Actual Average (KDTW) Record (KDTW)
Temperature  
Mean Temperature 10 °F -  
Max Temperature 15 °F 39 °F 63 °F (1976)
Min Temperature 5 °F 22 °F -4 °F (1934)
Degree Days  
Heating Degree Days 55    
Moisture  
Dew Point -3 °F    
Average Humidity 53    
Maximum Humidity 79    
Minimum Humidity 34    
Precipitation  
Precipitation 0.00 in - - ()
Sea Level Pressure  
Sea Level Pressure 29.86 in    
Wind  
Wind Speed 15 mph (WNW)    
Max Wind Speed 25 mph    
Max Gust Speed 36 mph    
Visibility 9 miles    
Events Snow    
Averages and records for this station are not official NWS values.
T = Trace of Precipitation, MM = Missing Value Source: NWS Daily Summary

Daily Weather History Graph

Daily Weather History Graph

Search for Another Location

Airport or City:

Trip Planner

Search our weather history database for the weather conditions in past years. The results will help you decide how hot, cold, wet, or windy it might be!

Date:

Astronomy

Feb. 27, 2014 Rise Set
Actual Time 7:10 AM EST 6:20 PM EST
Civil Twilight 6:42 AM EST 6:48 PM EST
Nautical Twilight 6:10 AM EST 7:20 PM EST
Astronomical Twilight 5:38 AM EST 7:53 PM EST
Moon 5:44 AM EST (2/27) 4:43 PM EST (2/27)
Length of Visible Light 12h 05m
Length of Day
11h 09m
Waning Crescent, 4% of the Moon is Illuminated
Feb 27
Waning Crescent
Mar 1
New
Mar 8
First Quarter
Mar 16
Full
Mar 23
Last Quarter

Hourly Weather History & Observations

Time (EST) Temp. Windchill Dew Point Humidity Pressure Visibility Wind Dir Wind Speed Gust Speed Precip Events Conditions
12:14 AM 14.0 °F -3.0 °F 1.4 °F 57% 29.64 in 10.0 mi WSW 18.4 mph 25.3 mph N/A   Scattered Clouds
12:34 AM 14.0 °F -3.4 °F 1.4 °F 57% 29.63 in 10.0 mi SW 19.6 mph 31.1 mph N/A   Clear
12:54 AM 14.0 °F -3.0 °F 1.4 °F 57% 29.62 in 10.0 mi SW 18.4 mph 26.5 mph N/A   Clear
1:14 AM 14.0 °F -2.0 °F 1.4 °F 57% 29.61 in 10.0 mi SW 16.1 mph 25.3 mph N/A   Clear
1:34 AM 14.0 °F 0.5 °F 1.4 °F 57% 29.60 in 10.0 mi SW 11.5 mph 21.9 mph N/A   Clear
1:54 AM 14.0 °F -1.4 °F 1.4 °F 57% 29.59 in 10.0 mi SW 15.0 mph 20.7 mph N/A   Clear
2:14 AM 14.0 °F -0.2 °F 1.4 °F 57% 29.57 in 10.0 mi SW 12.7 mph - N/A   Clear
2:34 AM 14.0 °F -0.8 °F 3.2 °F 62% 29.56 in 10.0 mi SW 13.8 mph 21.9 mph N/A   Clear
2:54 AM 14.0 °F -0.8 °F 3.2 °F 62% 29.54 in 10.0 mi SSW 13.8 mph 21.9 mph N/A   Clear
3:14 AM 15.8 °F 0.3 °F 3.2 °F 58% 29.53 in 10.0 mi SW 16.1 mph 23.0 mph N/A   Clear
3:35 AM 15.8 °F 0.9 °F 5.0 °F 62% 29.53 in 10.0 mi SW 15.0 mph 23.0 mph N/A   Mostly Cloudy
3:54 AM 15.8 °F 0.9 °F 5.0 °F 62% 29.52 in 10.0 mi SW 15.0 mph 24.2 mph N/A   Mostly Cloudy
4:14 AM 15.8 °F 0.3 °F 5.0 °F 62% 29.52 in 10.0 mi SW 16.1 mph 26.5 mph N/A   Mostly Cloudy
4:35 AM 15.8 °F 0.9 °F 6.8 °F 68% 29.52 in 10.0 mi WSW 15.0 mph 21.9 mph N/A   Overcast
4:54 AM 15.8 °F -0.6 °F 6.8 °F 68% 29.52 in 10.0 mi WSW 18.4 mph 23.0 mph N/A   Overcast
5:14 AM 15.8 °F 0.3 °F 8.6 °F 73% 29.53 in 5.0 mi WSW 16.1 mph 25.3 mph N/A   Haze
5:34 AM 15.8 °F 2.1 °F 10.4 °F 79% 29.54 in 4.0 mi WSW 12.7 mph 20.7 mph N/A Snow Light Snow
5:54 AM 15.8 °F 2.7 °F 10.4 °F 79% 29.55 in 3.0 mi West 11.5 mph 16.1 mph N/A Snow Light Snow
6:15 AM 15.8 °F 2.7 °F 10.4 °F 79% 29.56 in 5.0 mi West 11.5 mph - N/A Snow Light Snow
6:34 AM 15.8 °F 2.7 °F 10.4 °F 79% 29.57 in 10.0 mi West 11.5 mph - N/A   Overcast
6:54 AM 15.8 °F 3.4 °F 8.6 °F 73% 29.58 in 10.0 mi WNW 10.4 mph 17.3 mph N/A Snow Light Snow
7:14 AM 15.8 °F 2.7 °F 8.6 °F 73% 29.59 in 10.0 mi WNW 11.5 mph - N/A   Scattered Clouds
7:34 AM 15.8 °F -2.3 °F 1.4 °F 53% 29.60 in 10.0 mi WNW 23.0 mph 33.4 mph N/A   Clear
7:54 AM 15.8 °F -1.5 °F 1.4 °F 53% 29.62 in 10.0 mi WNW 20.7 mph 27.6 mph N/A   Scattered Clouds
8:14 AM 14.0 °F -4.7 °F 1.4 °F 57% 29.65 in 10.0 mi WNW 23.0 mph 27.6 mph N/A   Mostly Cloudy
8:34 AM 14.0 °F -0.8 °F -0.4 °F 53% 29.66 in 10.0 mi WNW 13.8 mph 27.6 mph N/A   Scattered Clouds
8:54 AM 14.0 °F -3.0 °F -0.4 °F 53% 29.69 in 10.0 mi NNW 18.4 mph 26.5 mph N/A   Scattered Clouds
9:14 AM 12.2 °F -5.3 °F 5.0 °F 73% 29.71 in 4.0 mi NW 18.4 mph 26.5 mph N/A Snow Light Snow
9:34 AM 10.4 °F -7.2 °F 3.2 °F 73% 29.74 in 1.8 mi NNW 17.3 mph 25.3 mph N/A Snow Light Snow
9:54 AM 10.4 °F -9.1 °F 1.4 °F 67% 29.76 in 2.5 mi NNW 21.9 mph 31.1 mph N/A Snow Light Snow
10:14 AM 10.4 °F -9.5 °F -2.2 °F 57% 29.79 in 10.0 mi NNW 23.0 mph 28.8 mph N/A   Overcast
10:34 AM 10.4 °F -9.5 °F -7.6 °F 44% 29.82 in 10.0 mi NNW 23.0 mph 34.5 mph N/A   Overcast
10:54 AM 10.4 °F -9.1 °F -7.6 °F 44% 29.84 in 10.0 mi NNW 21.9 mph 33.4 mph N/A   Mostly Cloudy
11:14 AM 10.4 °F -10.3 °F -9.4 °F 41% 29.85 in 10.0 mi NW 25.3 mph 34.5 mph N/A   Scattered Clouds
11:34 AM 10.4 °F -9.5 °F -9.4 °F 41% 29.87 in 10.0 mi WNW 23.0 mph 33.4 mph N/A   Scattered Clouds
11:54 AM 10.4 °F -8.2 °F -7.6 °F 44% 29.88 in 10.0 mi WNW 19.6 mph 34.5 mph N/A   Mostly Cloudy
12:14 PM 10.4 °F -10.3 °F -11.2 °F 37% 29.90 in 10.0 mi NW 25.3 mph 35.7 mph N/A   Overcast
12:34 PM 10.4 °F -7.7 °F -9.4 °F 41% 29.91 in 10.0 mi NW 18.4 mph 27.6 mph N/A   Mostly Cloudy
12:55 PM 10.4 °F -7.2 °F -4.0 °F 52% 29.93 in 10.0 mi WNW 17.3 mph 27.6 mph N/A   Scattered Clouds
1:14 PM 10.4 °F -7.2 °F -5.8 °F 48% 29.94 in 10.0 mi NW 17.3 mph 29.9 mph N/A   Mostly Cloudy
1:34 PM 12.2 °F -3.7 °F 1.4 °F 62% 29.95 in 5.0 mi NW 15.0 mph 24.2 mph N/A   Haze
1:54 PM 10.4 °F -9.1 °F -4.0 °F 52% 29.97 in 10.0 mi NW 21.9 mph 27.6 mph N/A   Overcast
2:14 PM 10.4 °F -6.0 °F -9.4 °F 41% 29.97 in 10.0 mi WNW 15.0 mph 31.1 mph N/A   Mostly Cloudy
2:34 PM 12.2 °F -3.7 °F -9.4 °F 38% 29.99 in 10.0 mi WNW 15.0 mph 24.2 mph N/A   Mostly Cloudy
2:54 PM 10.4 °F -6.0 °F -9.4 °F 41% 30.00 in 10.0 mi NW 15.0 mph 25.3 mph N/A   Overcast
3:14 PM 12.2 °F -4.8 °F -11.2 °F 34% 30.00 in 10.0 mi WNW 17.3 mph 26.5 mph N/A   Mostly Cloudy
3:34 PM 12.2 °F -1.8 °F -11.2 °F 34% 30.01 in 10.0 mi West 11.5 mph 20.7 mph N/A   Mostly Cloudy
3:54 PM 10.4 °F -7.2 °F -11.2 °F 37% 30.03 in 10.0 mi WNW 17.3 mph 21.9 mph N/A   Scattered Clouds
4:14 PM 12.2 °F -4.8 °F -11.2 °F 34% 30.03 in 10.0 mi WNW 17.3 mph 24.2 mph N/A   Scattered Clouds
4:34 PM 10.4 °F -4.8 °F -9.4 °F 41% 30.04 in 10.0 mi WNW 12.7 mph 18.4 mph N/A   Scattered Clouds
4:54 PM 10.4 °F -4.8 °F -9.4 °F 41% 30.05 in 10.0 mi NW 12.7 mph 19.6 mph N/A   Mostly Cloudy
5:14 PM 10.4 °F -5.4 °F -9.4 °F 41% 30.06 in 10.0 mi NW 13.8 mph - N/A   Mostly Cloudy
5:34 PM 10.4 °F -2.4 °F -7.6 °F 44% 30.07 in 10.0 mi WNW 9.2 mph - N/A   Mostly Cloudy
5:54 PM 10.4 °F -5.4 °F -9.4 °F 41% 30.08 in 10.0 mi NW 13.8 mph 17.3 mph N/A   Mostly Cloudy
6:15 PM 10.4 °F -2.4 °F -9.4 °F 41% 30.09 in 10.0 mi NW 9.2 mph - N/A   Mostly Cloudy
6:34 PM 8.6 °F -4.7 °F -9.4 °F 44% 30.09 in 10.0 mi NW 9.2 mph - N/A   Scattered Clouds
6:54 PM 8.6 °F -4.7 °F -9.4 °F 44% 30.11 in 10.0 mi NW 9.2 mph - N/A   Clear
7:15 PM 8.6 °F -3.7 °F -7.6 °F 48% 30.12 in 10.0 mi WNW 8.1 mph - N/A   Clear
7:34 PM 8.6 °F -2.6 °F -9.4 °F 44% 30.13 in 10.0 mi WNW 6.9 mph - N/A   Clear
7:54 PM 8.6 °F -1.3 °F -9.4 °F 44% 30.13 in 10.0 mi WNW 5.8 mph - N/A   Clear
8:15 PM 8.6 °F -1.3 °F -9.4 °F 44% 30.14 in 10.0 mi WNW 5.8 mph - N/A   Clear
8:34 PM 8.6 °F 0.1 °F -9.4 °F 44% 30.15 in 10.0 mi WNW 4.6 mph - N/A   Clear
8:54 PM 6.8 °F -0.1 °F -7.6 °F 52% 30.15 in 10.0 mi NW 3.5 mph - N/A   Clear
9:14 PM 6.8 °F -4.8 °F -9.4 °F 48% 30.16 in 10.0 mi NW 6.9 mph - N/A   Clear
9:34 PM 6.8 °F -5.9 °F -9.4 °F 48% 30.17 in 10.0 mi NW 8.1 mph - N/A   Clear
9:55 PM 6.8 °F -2.0 °F -7.6 °F 52% 30.17 in 10.0 mi NW 4.6 mph - N/A   Clear
10:14 PM 6.8 °F -3.5 °F -7.6 °F 52% 30.18 in 10.0 mi NNW 5.8 mph - N/A   Clear
10:34 PM 5.0 °F - -7.6 °F 56% 30.18 in 10.0 mi Calm Calm - N/A   Clear
10:54 PM 6.8 °F -2.0 °F -7.6 °F 52% 30.19 in 10.0 mi NNW 4.6 mph - N/A   Clear
11:14 PM 6.8 °F -2.0 °F -7.6 °F 52% 30.19 in 10.0 mi North 4.6 mph - N/A   Clear
11:34 PM 5.0 °F - -7.6 °F 56% 30.19 in 10.0 mi Calm Calm - N/A   Clear
11:54 PM 5.0 °F - -7.6 °F 56% 30.20 in 10.0 mi Calm Calm - N/A   Clear